Time;durP1;ratioP1;P1;durP2;ratioP2;P2;SDS_P1;SDS_P2;PMS_P1;PMS_P2;Temp;Humidity;BMP_temperature;BMP_pressure;BME280_temperature;BME280_humidity;BME280_pressure;Samples;Min_cycle;Max_cycle;Signal;HPM_P1;HPM_P2
2021/03/08 00:00:22;;;;;;;12.13;8.25;;;4.90;99.90;;;;;;5028514;28;20219;-78
2021/03/08 00:02:50;;;;;;;8.82;7.93;;;4.90;99.90;;;;;;5021123;28;20362;-79
2021/03/08 00:05:16;;;;;;;10.90;8.93;;;4.90;99.90;;;;;;5019249;28;20197;-78
2021/03/08 00:07:45;;;;;;;10.70;9.05;;;4.90;99.90;;;;;;5020064;28;20216;-79
2021/03/08 00:10:12;;;;;;;13.00;9.00;;;4.90;99.90;;;;;;5019775;28;20200;-79
2021/03/08 00:12:40;;;;;;;10.63;8.40;;;4.90;99.90;;;;;;5025160;28;20203;-81
2021/03/08 00:15:07;;;;;;;10.70;9.60;;;4.90;99.90;;;;;;5017094;28;20704;-79
2021/03/08 00:17:34;;;;;;;10.05;8.90;;;4.90;99.90;;;;;;5021291;28;20196;-77
2021/03/08 00:20:00;;;;;;;11.23;8.60;;;4.80;99.90;;;;;;5019039;28;20231;-77
2021/03/08 00:22:27;;;;;;;11.15;10.05;;;4.80;99.90;;;;;;5023576;28;20669;-79
2021/03/08 00:24:53;;;;;;;13.50;10.27;;;4.80;99.90;;;;;;5021507;28;20303;-78
2021/03/08 00:27:20;;;;;;;12.65;10.48;;;4.80;99.90;;;;;;5023616;28;20227;-78
2021/03/08 00:29:47;;;;;;;13.10;10.15;;;4.80;99.90;;;;;;5018524;28;20284;-78
2021/03/08 00:32:13;;;;;;;12.88;9.45;;;4.80;99.90;;;;;;5021063;28;20247;-78
2021/03/08 00:34:40;;;;;;;11.10;9.82;;;4.80;99.90;;;;;;5023193;28;20280;-78
2021/03/08 00:37:06;;;;;;;11.88;10.10;;;4.80;99.90;;;;;;5022334;28;20407;-78
2021/03/08 00:39:33;;;;;;;15.80;10.70;;;4.80;99.90;;;;;;5022698;28;20219;-78
2021/03/08 00:41:59;;;;;;;10.35;9.32;;;4.80;99.90;;;;;;5022042;28;20201;-78
2021/03/08 00:44:26;;;;;;;10.88;9.50;;;4.80;99.90;;;;;;5018515;28;20201;-80
2021/03/08 00:46:53;;;;;;;13.23;9.80;;;4.80;99.90;;;;;;5022124;28;20255;-77
2021/03/08 00:49:20;;;;;;;11.13;9.73;;;4.80;99.90;;;;;;5013936;28;20212;-79
2021/03/08 00:51:46;;;;;;;12.55;10.35;;;4.80;99.90;;;;;;5024029;28;20206;-79
2021/03/08 00:54:12;;;;;;;16.77;10.57;;;4.80;99.90;;;;;;5020226;28;20201;-79
2021/03/08 00:56:39;;;;;;;12.27;9.00;;;4.80;99.90;;;;;;5020682;28;20232;-79
2021/03/08 00:59:05;;;;;;;11.80;9.93;;;4.80;99.90;;;;;;5019535;28;20289;-78
2021/03/08 01:01:31;;;;;;;13.38;9.95;;;4.80;99.90;;;;;;5023496;28;20586;-79
2021/03/08 01:03:59;;;;;;;11.95;9.65;;;4.80;99.90;;;;;;5015240;28;20210;-79
2021/03/08 01:06:25;;;;;;;11.38;10.18;;;4.80;99.90;;;;;;5022510;28;20203;-78
2021/03/08 01:08:51;;;;;;;13.55;10.30;;;4.80;99.90;;;;;;5020965;28;20578;-78
2021/03/08 01:11:18;;;;;;;11.57;10.38;;;4.80;99.90;;;;;;5020426;28;20737;-78
2021/03/08 01:13:44;;;;;;;12.23;10.20;;;4.80;99.90;;;;;;5018844;28;20193;-78
2021/03/08 01:16:10;;;;;;;11.55;10.15;;;4.80;99.90;;;;;;5019996;28;20209;-78
2021/03/08 01:18:37;;;;;;;20.23;10.90;;;4.80;99.90;;;;;;5011812;28;20189;-81
2021/03/08 01:21:04;;;;;;;11.82;9.38;;;4.80;99.90;;;;;;5019551;28;20621;-78
2021/03/08 01:23:30;;;;;;;10.32;9.07;;;4.80;99.90;;;;;;5016528;28;20211;-78
2021/03/08 01:25:56;;;;;;;12.40;10.00;;;4.80;99.90;;;;;;5021257;28;20543;-78
2021/03/08 01:28:23;;;;;;;13.05;9.13;;;4.80;99.90;;;;;;5024711;28;20655;-78
2021/03/08 01:30:49;;;;;;;12.70;10.13;;;4.80;99.90;;;;;;5022920;28;20575;-78
2021/03/08 01:33:16;;;;;;;12.73;10.10;;;4.80;99.90;;;;;;5019603;28;20204;-79
2021/03/08 01:35:42;;;;;;;12.73;9.82;;;4.80;99.90;;;;;;5019905;28;20231;-80
2021/03/08 01:38:09;;;;;;;14.75;10.70;;;4.80;99.90;;;;;;5025501;28;20204;-80
2021/03/08 01:40:38;;;;;;;13.35;10.45;;;4.80;99.90;;;;;;5020981;28;20253;-80
2021/03/08 01:43:05;;;;;;;15.57;10.85;;;4.80;99.90;;;;;;5014922;28;20196;-78
2021/03/08 01:45:31;;;;;;;17.95;10.25;;;4.70;99.90;;;;;;5017482;28;20204;-79
2021/03/08 01:47:58;;;;;;;15.43;10.05;;;4.80;99.90;;;;;;5020725;28;20204;-77
2021/03/08 01:50:30;;;;;;;15.07;10.88;;;4.80;99.90;;;;;;5016242;28;20227;-80
2021/03/08 01:52:57;;;;;;;16.45;12.10;;;4.80;99.90;;;;;;5024081;28;20246;-78
2021/03/08 01:55:25;;;;;;;13.57;11.07;;;4.80;99.90;;;;;;5021337;28;20223;-79
2021/03/08 01:57:51;;;;;;;13.40;11.10;;;4.90;99.90;;;;;;5018082;28;20231;-78
2021/03/08 02:00:18;;;;;;;16.05;10.75;;;4.90;99.90;;;;;;5021651;28;20200;-78
2021/03/08 02:02:46;;;;;;;12.10;10.63;;;4.90;99.90;;;;;;5022920;28;20220;-80
2021/03/08 02:05:15;;;;;;;12.18;10.27;;;4.90;99.90;;;;;;5020745;28;20193;-78
2021/03/08 02:07:42;;;;;;;14.30;10.13;;;4.90;99.90;;;;;;5017619;28;20291;-78
2021/03/08 02:10:10;;;;;;;13.10;10.23;;;4.80;99.90;;;;;;5018935;28;20207;-78
2021/03/08 02:12:52;;;;;;;14.38;9.77;;;4.80;99.90;;;;;;5018091;28;20212;-78
2021/03/08 02:15:29;;;;;;;14.88;10.35;;;4.80;99.90;;;;;;5014353;28;20225;-79
2021/03/08 02:18:03;;;;;;;15.90;12.30;;;4.80;99.90;;;;;;5024516;28;20200;-78
2021/03/08 02:20:52;;;;;;;14.63;12.25;;;4.90;99.90;;;;;;5023877;28;20287;-80
2021/03/08 02:24:01;;;;;;;14.82;12.15;;;4.90;99.90;;;;;;5017328;28;20308;-79
2021/03/08 02:26:36;;;;;;;15.93;11.10;;;4.90;99.90;;;;;;5021477;28;20218;-77
2021/03/08 02:29:16;;;;;;;12.52;11.23;;;4.90;99.90;;;;;;5021779;28;20192;-78
2021/03/08 02:31:47;;;;;;;13.80;11.00;;;4.80;99.90;;;;;;5026320;28;20680;-78
2021/03/08 02:34:21;;;;;;;12.95;10.40;;;4.80;99.90;;;;;;5018114;28;20215;-79
2021/03/08 02:36:53;;;;;;;17.35;11.38;;;4.80;99.90;;;;;;5015867;28;20228;-78
2021/03/08 02:39:24;;;;;;;13.05;10.95;;;4.80;99.90;;;;;;5028004;28;20215;-79
2021/03/08 02:41:53;;;;;;;12.90;10.63;;;4.80;99.90;;;;;;5023291;28;20306;-78
2021/03/08 02:44:24;;;;;;;16.05;11.40;;;4.80;99.90;;;;;;5021721;28;20276;-78
2021/03/08 02:46:53;;;;;;;18.92;11.57;;;4.80;99.90;;;;;;5021837;28;20233;-78
2021/03/08 02:49:24;;;;;;;16.25;11.27;;;4.70;99.90;;;;;;5020552;28;20203;-80
2021/03/08 02:51:54;;;;;;;12.40;10.60;;;4.70;99.90;;;;;;5021565;28;20212;-79
2021/03/08 02:54:23;;;;;;;15.82;12.27;;;4.70;99.90;;;;;;5023245;28;20221;-78
2021/03/08 02:56:53;;;;;;;18.67;11.50;;;4.70;99.90;;;;;;5021670;28;20227;-77
2021/03/08 02:59:22;;;;;;;19.85;12.93;;;4.70;99.90;;;;;;5020392;28;20889;-77
2021/03/08 03:01:51;;;;;;;12.80;10.38;;;4.70;99.90;;;;;;5026408;28;20196;-79
2021/03/08 03:04:20;;;;;;;15.00;10.70;;;4.70;99.90;;;;;;5022546;28;20200;-77
2021/03/08 03:06:48;;;;;;;15.85;11.40;;;4.70;99.90;;;;;;5017480;28;20198;-78
2021/03/08 03:09:17;;;;;;;15.90;11.85;;;4.70;99.90;;;;;;5023421;28;20206;-80
2021/03/08 03:11:49;;;;;;;17.63;13.00;;;4.60;99.90;;;;;;5019469;28;20192;-77
2021/03/08 03:14:17;;;;;;;16.02;12.05;;;4.60;99.90;;;;;;5015987;28;20563;-79
2021/03/08 03:16:45;;;;;;;14.65;12.05;;;4.60;99.90;;;;;;5021499;28;20272;-77
2021/03/08 03:19:15;;;;;;;18.63;12.40;;;4.60;99.90;;;;;;5025168;28;20226;-80
2021/03/08 03:21:45;;;;;;;17.25;13.30;;;4.60;99.90;;;;;;5020830;28;20562;-78
2021/03/08 03:24:11;;;;;;;21.83;13.80;;;4.60;99.90;;;;;;5021664;28;20640;-78
2021/03/08 03:26:39;;;;;;;14.85;11.65;;;4.60;99.90;;;;;;5025318;28;20328;-77
2021/03/08 03:29:07;;;;;;;16.80;12.02;;;4.60;99.90;;;;;;5026240;28;20495;-79
2021/03/08 03:31:35;;;;;;;18.15;12.70;;;4.60;99.90;;;;;;5023145;28;20211;-77
2021/03/08 03:34:02;;;;;;;15.95;12.60;;;4.60;99.90;;;;;;5019176;28;20294;-76
2021/03/08 03:36:32;;;;;;;16.95;13.10;;;4.50;99.90;;;;;;5023067;28;20233;-77
2021/03/08 03:38:58;;;;;;;19.40;13.20;;;4.60;99.90;;;;;;5021595;28;20394;-78
2021/03/08 03:41:25;;;;;;;16.98;13.23;;;4.50;99.90;;;;;;5020783;28;20201;-80
2021/03/08 03:43:51;;;;;;;23.10;14.20;;;4.50;99.90;;;;;;5025428;28;20208;-78
2021/03/08 03:46:18;;;;;;;19.35;14.45;;;4.50;99.90;;;;;;5023204;28;20231;-78
2021/03/08 03:48:44;;;;;;;23.02;14.65;;;4.50;99.90;;;;;;5018661;28;20288;-78
2021/03/08 03:51:11;;;;;;;22.55;13.23;;;4.50;99.90;;;;;;5021308;28;20220;-78
2021/03/08 03:53:38;;;;;;;19.45;14.07;;;4.50;99.90;;;;;;5023588;28;20201;-77
2021/03/08 03:56:06;;;;;;;20.45;13.38;;;4.50;99.90;;;;;;5021345;28;20746;-78
2021/03/08 03:58:37;;;;;;;19.02;14.10;;;4.50;99.90;;;;;;5020665;28;20196;-77
2021/03/08 04:01:07;;;;;;;21.38;14.52;;;4.50;99.90;;;;;;5022967;28;20302;-78
2021/03/08 04:03:39;;;;;;;21.55;12.98;;;4.40;99.90;;;;;;5022155;28;20204;-79
2021/03/08 04:06:07;;;;;;;17.70;13.10;;;4.40;99.90;;;;;;5018876;28;20192;-78
2021/03/08 04:08:35;;;;;;;16.33;12.73;;;4.40;99.90;;;;;;5014185;28;20197;-77
2021/03/08 04:11:05;;;;;;;19.42;14.60;;;4.40;99.90;;;;;;5027534;28;20206;-78
2021/03/08 04:13:33;;;;;;;19.85;15.18;;;4.40;99.90;;;;;;5024986;28;20188;-77
2021/03/08 04:16:00;;;;;;;22.20;14.95;;;4.40;99.90;;;;;;5023165;28;20242;-77
2021/03/08 04:18:27;;;;;;;21.58;14.57;;;4.40;99.90;;;;;;5023114;28;20357;-78
2021/03/08 04:20:57;;;;;;;23.70;14.43;;;4.40;99.90;;;;;;5023300;28;20243;-78
2021/03/08 04:23:25;;;;;;;21.48;13.05;;;4.40;99.90;;;;;;5025956;28;20268;-78
2021/03/08 04:25:52;;;;;;;23.58;15.07;;;4.30;99.90;;;;;;5023272;28;20207;-78
2021/03/08 04:28:21;;;;;;;20.08;13.43;;;4.30;99.90;;;;;;5022760;28;20215;-78
2021/03/08 04:30:48;;;;;;;25.95;16.55;;;4.30;99.90;;;;;;5024538;28;20200;-76
2021/03/08 04:33:17;;;;;;;24.73;16.33;;;4.30;99.90;;;;;;5021970;28;20200;-78
2021/03/08 04:35:47;;;;;;;24.73;15.57;;;4.30;99.90;;;;;;5024132;28;20255;-78
2021/03/08 04:38:14;;;;;;;35.08;17.83;;;4.20;99.90;;;;;;5025493;28;20204;-78
2021/03/08 04:40:42;;;;;;;25.48;15.73;;;4.20;99.90;;;;;;5025492;28;20210;-79
2021/03/08 04:43:09;;;;;;;24.70;15.30;;;4.20;99.90;;;;;;5018129;28;20191;-77
2021/03/08 04:45:38;;;;;;;30.92;19.75;;;4.20;99.90;;;;;;5023856;28;20187;-77
2021/03/08 04:48:05;;;;;;;34.22;18.27;;;4.20;99.90;;;;;;5023549;28;20198;-77
2021/03/08 04:50:33;;;;;;;25.45;17.45;;;4.20;99.90;;;;;;5022459;28;20203;-80
2021/03/08 04:53:00;;;;;;;29.55;18.27;;;4.20;99.90;;;;;;5019574;28;20203;-79
2021/03/08 04:55:29;;;;;;;30.17;17.38;;;4.20;99.90;;;;;;5023758;28;20710;-78
2021/03/08 04:57:56;;;;;;;29.13;17.17;;;4.10;99.90;;;;;;5022696;28;20213;-78
2021/03/08 05:00:23;;;;;;;29.15;18.13;;;4.10;99.90;;;;;;5025440;28;20540;-79
2021/03/08 05:02:54;;;;;;;28.50;17.27;;;4.10;99.90;;;;;;5023777;28;20256;-78
2021/03/08 05:05:22;;;;;;;23.33;16.90;;;4.00;99.90;;;;;;5022073;28;20196;-77
2021/03/08 05:07:51;;;;;;;28.60;18.17;;;4.00;99.90;;;;;;5021081;28;20211;-79
2021/03/08 05:10:20;;;;;;;31.60;18.48;;;4.00;99.90;;;;;;5018147;28;20211;-77
2021/03/08 05:12:49;;;;;;;28.45;17.15;;;4.00;99.90;;;;;;5019875;28;20309;-77
2021/03/08 05:15:17;;;;;;;35.85;19.00;;;4.00;99.90;;;;;;5020192;28;20223;-78
2021/03/08 05:17:46;;;;;;;28.05;17.35;;;4.00;99.90;;;;;;5022770;28;20596;-77
2021/03/08 05:20:15;;;;;;;29.58;18.10;;;4.00;99.90;;;;;;5022041;28;20214;-77
2021/03/08 05:22:42;;;;;;;32.45;18.88;;;4.00;99.90;;;;;;5018328;28;20581;-78
2021/03/08 05:25:10;;;;;;;33.30;18.70;;;3.90;99.90;;;;;;5018068;28;20639;-79
2021/03/08 05:27:38;;;;;;;28.58;18.15;;;3.90;99.90;;;;;;5018192;28;20200;-79
2021/03/08 05:30:06;;;;;;;31.88;19.58;;;3.90;99.90;;;;;;5018816;28;20195;-77
2021/03/08 05:32:36;;;;;;;32.33;17.20;;;3.90;99.90;;;;;;5023954;28;20252;-78
2021/03/08 05:35:04;;;;;;;31.60;20.67;;;3.90;99.90;;;;;;5026107;28;20713;-78
2021/03/08 05:37:33;;;;;;;31.13;19.27;;;3.90;99.90;;;;;;5022381;28;20258;-78
2021/03/08 05:40:01;;;;;;;31.02;18.85;;;3.90;99.90;;;;;;5016723;28;20313;-79
2021/03/08 05:42:34;;;;;;;41.95;20.77;;;3.90;99.90;;;;;;5022014;28;20199;-77
2021/03/08 05:45:03;;;;;;;34.35;19.95;;;3.90;99.90;;;;;;5014664;28;20637;-78
2021/03/08 05:47:53;;;;;;;36.90;20.70;;;3.90;99.90;;;;;;5020623;28;20191;-78
2021/03/08 05:50:56;;;;;;;39.75;20.15;;;3.90;99.90;;;;;;5018019;28;20245;-78
2021/03/08 05:54:02;;;;;;;32.00;21.17;;;3.90;99.90;;;;;;5014761;28;20193;-78
2021/03/08 05:56:40;;;;;;;32.63;19.60;;;3.90;99.90;;;;;;5013488;28;20225;-78
2021/03/08 05:59:22;;;;;;;34.08;19.55;;;3.90;99.90;;;;;;5024675;28;20195;-78
2021/03/08 06:02:04;;;;;;;32.15;18.88;;;3.90;99.90;;;;;;5025668;28;20200;-79
2021/03/08 06:05:01;;;;;;;36.70;21.58;;;3.90;99.90;;;;;;5023477;28;20234;-78
2021/03/08 06:07:53;;;;;;;32.15;19.02;;;3.90;99.90;;;;;;5020728;28;20493;-78
2021/03/08 06:10:24;;;;;;;29.25;17.88;;;3.90;99.90;;;;;;5026555;28;20210;-78
2021/03/08 06:12:54;;;;;;;39.90;19.95;;;4.00;99.90;;;;;;5028622;28;20217;-77
2021/03/08 06:15:22;;;;;;;28.70;19.23;;;4.00;99.90;;;;;;5026545;28;20312;-80
2021/03/08 06:17:50;;;;;;;41.47;20.75;;;4.00;99.90;;;;;;5024270;28;20201;-78
2021/03/08 06:20:19;;;;;;;37.72;22.10;;;4.00;99.90;;;;;;5023971;28;20487;-78
2021/03/08 06:22:46;;;;;;;36.10;23.23;;;4.00;99.90;;;;;;5022280;28;20603;-77
2021/03/08 06:25:13;;;;;;;43.33;22.98;;;4.00;99.90;;;;;;5024254;28;20275;-78
2021/03/08 06:27:42;;;;;;;44.67;22.60;;;4.00;99.90;;;;;;5022770;28;20226;-77
2021/03/08 06:30:09;;;;;;;36.00;21.77;;;4.00;99.90;;;;;;5026038;28;20236;-80
2021/03/08 06:32:35;;;;;;;32.30;19.52;;;4.00;99.90;;;;;;5024161;28;20203;-78
2021/03/08 06:35:02;;;;;;;35.80;22.08;;;4.00;99.90;;;;;;5024587;28;20605;-80
2021/03/08 06:37:30;;;;;;;35.20;20.80;;;4.00;99.90;;;;;;5027895;28;20286;-77
2021/03/08 06:39:57;;;;;;;33.22;21.17;;;3.90;99.90;;;;;;5032414;28;20186;-78
2021/03/08 06:42:23;;;;;;;29.48;18.60;;;3.90;99.90;;;;;;5022889;28;20191;-78
2021/03/08 06:44:51;;;;;;;37.38;19.75;;;3.90;99.90;;;;;;5022527;28;20194;-79
2021/03/08 06:47:18;;;;;;;31.70;19.27;;;3.90;99.90;;;;;;5027459;28;20341;-78
2021/03/08 06:49:45;;;;;;;31.45;19.35;;;4.00;99.90;;;;;;5026261;28;20191;-78
2021/03/08 06:52:13;;;;;;;32.67;19.02;;;4.00;99.90;;;;;;5025725;28;20249;-78
2021/03/08 06:54:41;;;;;;;31.92;18.48;;;4.00;99.90;;;;;;5026613;28;20548;-79
2021/03/08 06:57:27;;;;;;;29.65;16.55;;;4.00;99.90;;;;;;5023440;28;20623;-79
2021/03/08 06:59:56;;;;;;;32.30;17.60;;;4.00;99.90;;;;;;5023092;28;20191;-77
2021/03/08 07:02:23;;;;;;;28.23;17.98;;;4.00;99.90;;;;;;5024121;28;20233;-78
2021/03/08 07:04:49;;;;;;;31.83;19.02;;;4.00;99.90;;;;;;5029828;28;20191;-79
2021/03/08 07:07:16;;;;;;;29.65;18.15;;;4.10;99.90;;;;;;5024146;28;20198;-78
2021/03/08 07:09:51;;;;;;;33.28;18.52;;;4.10;99.90;;;;;;5025102;28;20187;-78
2021/03/08 07:12:18;;;;;;;34.35;19.80;;;4.10;99.90;;;;;;5029760;28;20317;-78
2021/03/08 07:14:45;;;;;;;38.30;22.05;;;4.20;99.90;;;;;;5028728;28;20205;-77
2021/03/08 07:17:32;;;;;;;39.92;21.58;;;4.20;99.90;;;;;;5023407;28;20222;-78
2021/03/08 07:20:00;;;;;;;40.20;19.60;;;4.30;99.90;;;;;;5024414;28;20736;-77
2021/03/08 07:22:44;;;;;;;34.40;21.92;;;4.30;99.90;;;;;;5026141;28;20231;-78
2021/03/08 07:25:19;;;;;;;48.03;24.67;;;4.40;99.90;;;;;;5020582;28;20293;-79
2021/03/08 07:27:47;;;;;;;41.05;23.45;;;4.50;99.90;;;;;;5020614;28;20214;-77
2021/03/08 07:30:15;;;;;;;40.20;23.77;;;4.50;99.90;;;;;;5019955;28;20630;-77
2021/03/08 07:32:51;;;;;;;40.50;23.27;;;4.60;99.90;;;;;;5019732;28;20252;-76
2021/03/08 07:35:18;;;;;;;41.28;25.92;;;4.70;99.90;;;;;;5023313;28;20229;-77
2021/03/08 07:37:46;;;;;;;42.25;24.25;;;4.70;99.90;;;;;;5019799;28;20273;-80
2021/03/08 07:40:22;;;;;;;45.90;25.60;;;4.80;99.90;;;;;;5021938;28;20200;-77
2021/03/08 07:42:48;;;;;;;46.97;27.50;;;4.90;99.90;;;;;;5016726;28;20207;-78
2021/03/08 07:45:15;;;;;;;48.65;25.25;;;4.90;99.90;;;;;;5024911;28;20219;-79
2021/03/08 07:47:42;;;;;;;48.42;27.05;;;4.90;99.90;;;;;;5023190;28;20200;-80
2021/03/08 07:50:26;;;;;;;49.22;25.25;;;5.00;99.90;;;;;;5020607;28;20199;-81
2021/03/08 07:52:55;;;;;;;42.67;25.60;;;5.10;99.90;;;;;;5021993;28;20199;-78
2021/03/08 07:55:21;;;;;;;49.35;25.83;;;5.10;99.90;;;;;;5022136;28;20578;-79
2021/03/08 07:57:49;;;;;;;48.55;27.77;;;5.20;99.90;;;;;;5021979;28;20230;-77
2021/03/08 08:00:16;;;;;;;47.92;27.30;;;5.20;99.90;;;;;;5024279;28;20211;-80
2021/03/08 08:02:44;;;;;;;43.10;26.50;;;5.30;99.90;;;;;;5018868;28;20200;-77
2021/03/08 08:05:11;;;;;;;44.63;26.30;;;5.40;99.90;;;;;;5018351;28;20204;-78
2021/03/08 08:07:39;;;;;;;44.47;28.02;;;5.40;99.90;;;;;;5018931;28;20201;-78
2021/03/08 08:10:07;;;;;;;49.55;26.92;;;5.40;99.90;;;;;;5022089;28;20315;-79
2021/03/08 08:12:37;;;;;;;45.55;27.80;;;5.50;99.90;;;;;;5022099;28;20200;-78
2021/03/08 08:15:05;;;;;;;45.97;26.60;;;5.50;99.90;;;;;;5021451;28;20220;-78
2021/03/08 08:17:35;;;;;;;44.05;26.17;;;5.60;99.90;;;;;;5022779;28;20200;-78
2021/03/08 08:20:03;;;;;;;50.03;27.90;;;5.70;99.90;;;;;;5012729;28;20637;-78
2021/03/08 08:22:33;;;;;;;43.67;25.08;;;5.70;99.90;;;;;;5015986;28;20209;-77
2021/03/08 08:25:01;;;;;;;46.00;25.08;;;5.80;99.90;;;;;;5018003;28;20660;-80
2021/03/08 08:27:28;;;;;;;51.63;29.27;;;5.90;99.90;;;;;;5016985;28;20199;-77
2021/03/08 08:30:00;;;;;;;53.97;27.85;;;5.90;99.90;;;;;;5013828;28;20656;-80
2021/03/08 08:32:26;;;;;;;48.90;28.38;;;6.00;99.90;;;;;;5014877;28;20500;-78
2021/03/08 08:34:53;;;;;;;48.22;26.90;;;6.00;99.90;;;;;;5012317;28;20194;-78
2021/03/08 08:37:24;;;;;;;46.97;26.70;;;6.10;99.90;;;;;;5017095;28;20648;-80
2021/03/08 08:40:14;;;;;;;45.28;25.90;;;6.10;99.90;;;;;;5016896;28;20231;-78
2021/03/08 08:42:41;;;;;;;48.35;27.58;;;6.10;99.90;;;;;;5011455;28;20228;-78
2021/03/08 08:45:29;;;;;;;48.20;26.98;;;6.20;99.90;;;;;;5019619;28;20219;-80
2021/03/08 08:48:04;;;;;;;44.03;25.67;;;6.30;99.90;;;;;;5014713;28;20673;-78
2021/03/08 08:50:45;;;;;;;51.20;27.38;;;6.30;99.90;;;;;;5016575;28;20204;-77
2021/03/08 08:53:12;;;;;;;48.75;25.77;;;6.30;99.90;;;;;;5024354;28;20201;-79
2021/03/08 08:55:47;;;;;;;48.30;27.10;;;6.40;99.90;;;;;;5021690;28;20217;-79
2021/03/08 08:58:26;;;;;;;44.47;26.88;;;6.50;99.90;;;;;;5017142;28;20226;-78
2021/03/08 09:01:40;;;;;;;46.97;27.15;;;6.50;99.90;;;;;;5017631;28;20198;-79
2021/03/08 09:04:09;;;;;;;49.22;27.38;;;6.60;99.90;;;;;;5016875;28;20210;-78
2021/03/08 09:06:49;;;;;;;44.05;27.55;;;6.60;99.90;;;;;;5016919;28;21054;-77
2021/03/08 09:09:19;;;;;;;45.53;26.63;;;6.70;99.90;;;;;;5018951;28;20201;-78
2021/03/08 09:11:56;;;;;;;50.28;28.77;;;6.70;99.90;;;;;;5021637;28;20679;-78
2021/03/08 09:14:36;;;;;;;48.40;26.45;;;6.70;99.90;;;;;;5018523;28;20204;-77
2021/03/08 09:17:11;;;;;;;45.92;27.90;;;6.80;99.90;;;;;;5014566;28;20225;-77
2021/03/08 09:19:38;;;;;;;49.55;26.70;;;6.80;99.90;;;;;;5013258;28;20233;-77
2021/03/08 09:22:37;;;;;;;41.50;27.15;;;6.90;99.90;;;;;;5018297;28;20767;-78
2021/03/08 09:25:16;;;;;;;49.45;29.40;;;7.00;99.90;;;;;;5011768;28;20734;-78
2021/03/08 09:27:43;;;;;;;39.50;27.05;;;7.00;99.90;;;;;;5012299;28;20197;-79
2021/03/08 09:30:12;;;;;;;50.75;29.55;;;7.00;99.90;;;;;;5017748;28;20202;-78
2021/03/08 09:32:48;;;;;;;44.90;26.75;;;7.10;99.90;;;;;;5017916;28;20194;-78
2021/03/08 09:35:14;;;;;;;46.45;29.42;;;7.10;99.90;;;;;;5016671;28;20297;-78
2021/03/08 09:37:44;;;;;;;52.00;29.45;;;7.10;99.90;;;;;;5011413;28;20215;-79
2021/03/08 09:40:14;;;;;;;41.33;26.05;;;7.20;99.90;;;;;;5012771;28;20682;-78
2021/03/08 09:42:41;;;;;;;41.85;26.70;;;7.20;99.90;;;;;;5012948;28;20244;-80
2021/03/08 09:45:19;;;;;;;42.88;26.15;;;7.30;99.90;;;;;;5013106;28;20235;-78
2021/03/08 09:47:46;;;;;;;41.95;26.90;;;7.30;99.90;;;;;;5014335;28;20653;-80
2021/03/08 09:50:17;;;;;;;48.58;25.98;;;7.30;99.90;;;;;;5018274;28;20206;-78
2021/03/08 09:52:45;;;;;;;41.88;25.40;;;7.40;99.90;;;;;;5016078;28;20289;-78
2021/03/08 09:55:16;;;;;;;45.05;26.77;;;7.40;99.90;;;;;;5012287;28;20206;-80
2021/03/08 09:57:44;;;;;;;43.03;27.33;;;7.50;99.90;;;;;;5009701;28;20205;-78
2021/03/08 10:00:13;;;;;;;51.42;26.10;;;7.50;99.90;;;;;;5014196;28;20193;-78
2021/03/08 10:02:40;;;;;;;44.08;28.75;;;7.60;99.90;;;;;;5017610;28;20199;-79
2021/03/08 10:05:09;;;;;;;39.05;25.15;;;7.70;99.90;;;;;;5014278;28;20220;-80
2021/03/08 10:07:49;;;;;;;42.08;26.00;;;7.70;99.90;;;;;;5011750;28;20229;-78
2021/03/08 10:10:17;;;;;;;44.10;27.27;;;7.70;99.90;;;;;;5014315;28;20202;-79
2021/03/08 10:12:43;;;;;;;45.53;26.17;;;7.60;99.90;;;;;;5013651;28;20220;-78
2021/03/08 10:15:11;;;;;;;44.90;25.15;;;7.60;99.90;;;;;;5014720;28;20203;-78
2021/03/08 10:17:59;;;;;;;43.10;26.00;;;7.70;99.90;;;;;;5016036;28;20296;-80
2021/03/08 10:20:26;;;;;;;44.22;24.15;;;7.60;99.90;;;;;;5011261;28;20233;-80
2021/03/08 10:22:54;;;;;;;50.15;25.80;;;7.70;99.90;;;;;;5018274;28;20720;-79
2021/03/08 10:25:24;;;;;;;47.03;25.77;;;7.70;99.90;;;;;;5013258;28;20205;-78
2021/03/08 10:27:52;;;;;;;48.30;25.85;;;7.70;99.90;;;;;;5014300;28;20194;-84
2021/03/08 10:30:20;;;;;;;42.72;25.42;;;7.70;99.90;;;;;;5011169;28;20218;-78
2021/03/08 10:32:47;;;;;;;52.42;26.05;;;7.70;99.90;;;;;;5010173;28;20198;-80
2021/03/08 10:35:15;;;;;;;40.90;24.70;;;7.70;99.90;;;;;;5015163;28;20191;-81
2021/03/08 10:37:42;;;;;;;41.97;25.42;;;7.70;99.90;;;;;;5011863;28;20227;-79
2021/03/08 10:40:10;;;;;;;45.38;24.50;;;7.60;99.90;;;;;;5019450;28;20252;-79
2021/03/08 10:42:38;;;;;;;51.53;27.13;;;7.50;99.90;;;;;;5008298;28;20207;-77
2021/03/08 10:45:08;;;;;;;47.95;26.98;;;7.50;99.90;;;;;;5012924;28;20425;-78
2021/03/08 10:47:35;;;;;;;45.05;25.25;;;7.50;99.90;;;;;;5013910;28;20205;-78
2021/03/08 10:50:01;;;;;;;54.15;27.25;;;7.50;99.90;;;;;;5015873;28;20213;-78
2021/03/08 10:52:27;;;;;;;49.63;26.60;;;7.50;99.90;;;;;;5018485;28;21005;-78
2021/03/08 10:54:54;;;;;;;41.17;24.45;;;7.50;99.90;;;;;;5017439;28;20683;-77
2021/03/08 10:57:22;;;;;;;46.28;26.60;;;7.50;99.90;;;;;;5017191;28;20252;-78
2021/03/08 10:59:50;;;;;;;45.97;26.23;;;7.50;99.90;;;;;;5018926;28;20268;-77
2021/03/08 11:02:18;;;;;;;44.70;25.23;;;7.50;99.90;;;;;;5019083;28;20287;-78
2021/03/08 11:04:46;;;;;;;48.10;30.10;;;7.50;99.90;;;;;;5017149;28;20202;-78
2021/03/08 11:07:13;;;;;;;45.03;26.50;;;7.50;99.90;;;;;;5020875;28;20202;-77
2021/03/08 11:09:44;;;;;;;48.67;27.70;;;7.60;99.90;;;;;;5022457;28;20300;-80
2021/03/08 11:12:17;;;;;;;43.95;27.42;;;7.60;99.90;;;;;;5011649;28;20201;-78
2021/03/08 11:14:50;;;;;;;48.22;25.98;;;7.60;99.90;;;;;;5014373;28;20233;-79
2021/03/08 11:17:17;;;;;;;57.17;28.55;;;7.70;99.90;;;;;;5016391;28;20225;-77
2021/03/08 11:19:43;;;;;;;45.78;26.55;;;7.80;99.90;;;;;;5012693;28;20733;-79
2021/03/08 11:22:11;;;;;;;57.53;30.48;;;7.80;99.90;;;;;;5018004;28;20227;-79
2021/03/08 11:24:42;;;;;;;44.10;27.13;;;7.90;99.90;;;;;;5019056;28;20308;-78
2021/03/08 11:27:20;;;;;;;49.05;27.23;;;7.90;99.90;;;;;;5020553;28;20194;-78
2021/03/08 11:29:58;;;;;;;46.72;26.33;;;7.90;99.90;;;;;;5017087;28;20221;-80
2021/03/08 11:32:26;;;;;;;52.45;27.10;;;8.00;99.90;;;;;;5015863;28;20544;-80
2021/03/08 11:34:53;;;;;;;48.53;27.98;;;8.00;99.90;;;;;;5013813;28;20281;-78
2021/03/08 11:37:21;;;;;;;46.13;25.30;;;8.00;99.90;;;;;;5017498;28;20229;-78
2021/03/08 11:39:50;;;;;;;50.67;28.30;;;8.00;99.90;;;;;;5017152;28;20201;-78
2021/03/08 11:42:17;;;;;;;47.38;26.98;;;8.00;99.90;;;;;;5017362;28;20233;-78
2021/03/08 11:44:45;;;;;;;45.58;26.63;;;8.10;99.90;;;;;;5012951;28;20202;-80
2021/03/08 11:47:13;;;;;;;46.53;28.33;;;8.10;99.90;;;;;;5018239;28;20193;-78
2021/03/08 11:49:39;;;;;;;48.92;27.95;;;8.10;99.90;;;;;;5016990;28;20587;-78
2021/03/08 11:52:07;;;;;;;53.22;28.00;;;8.10;99.90;;;;;;5018071;28;20194;-80
2021/03/08 11:54:34;;;;;;;52.10;28.58;;;8.10;99.90;;;;;;5016212;28;20693;-78
2021/03/08 11:57:00;;;;;;;48.78;28.40;;;8.20;99.90;;;;;;5020539;28;21115;-79
2021/03/08 11:59:27;;;;;;;48.58;26.75;;;8.20;99.90;;;;;;5011154;28;20298;-78
2021/03/08 12:01:53;;;;;;;51.33;27.63;;;8.30;99.90;;;;;;5014285;28;20735;-81
2021/03/08 12:04:21;;;;;;;44.72;26.25;;;8.30;99.90;;;;;;5016810;28;20233;-78
2021/03/08 12:06:48;;;;;;;43.15;24.45;;;8.40;99.90;;;;;;5015023;28;20245;-78
2021/03/08 12:09:15;;;;;;;50.45;28.15;;;8.50;99.90;;;;;;5016425;28;20201;-79
2021/03/08 12:11:41;;;;;;;47.50;25.80;;;8.60;99.90;;;;;;5016303;28;20539;-78
2021/03/08 12:14:08;;;;;;;43.15;27.42;;;8.70;99.90;;;;;;5014316;28;20217;-78
2021/03/08 12:16:34;;;;;;;48.15;28.83;;;8.80;99.90;;;;;;5014755;28;20228;-80
2021/03/08 12:19:01;;;;;;;46.58;26.38;;;8.90;99.90;;;;;;5015105;28;20544;-78
2021/03/08 12:21:29;;;;;;;44.92;25.40;;;8.90;99.90;;;;;;5018823;28;20214;-81
2021/03/08 12:23:56;;;;;;;40.92;24.35;;;9.00;99.90;;;;;;5016007;28;20198;-81
2021/03/08 12:26:23;;;;;;;48.35;26.00;;;9.10;99.90;;;;;;5016284;28;20281;-78
2021/03/08 12:28:49;;;;;;;40.75;24.17;;;9.20;99.90;;;;;;5017552;28;20789;-78
2021/03/08 12:31:18;;;;;;;39.35;22.92;;;9.20;99.90;;;;;;5011943;28;20214;-78
2021/03/08 12:33:44;;;;;;;40.25;25.30;;;9.30;99.90;;;;;;5019106;28;20212;-79
2021/03/08 12:36:11;;;;;;;44.78;24.23;;;9.30;99.90;;;;;;5017065;28;20321;-79
2021/03/08 12:38:38;;;;;;;37.75;22.58;;;9.40;99.90;;;;;;5014150;28;20198;-79
2021/03/08 12:41:05;;;;;;;41.17;23.65;;;9.50;99.90;;;;;;5018506;28;20199;-79
2021/03/08 12:43:31;;;;;;;44.85;23.27;;;9.60;99.90;;;;;;5016267;28;20645;-78
2021/03/08 12:45:58;;;;;;;41.75;24.05;;;9.70;99.90;;;;;;5011043;28;20207;-79
2021/03/08 12:48:24;;;;;;;34.78;21.30;;;9.70;99.90;;;;;;5015911;28;20207;-78
2021/03/08 12:50:51;;;;;;;35.88;22.98;;;9.80;99.90;;;;;;5014579;28;20202;-82